Time;durP1;ratioP1;P1;durP2;ratioP2;P2;SDS_P1;SDS_P2;PMS_P1;PMS_P2;Temp;Humidity;BMP_temperature;BMP_pressure;BME280_temperature;BME280_humidity;BME280_pressure;Samples;Min_cycle;Max_cycle;Signal;HPM_P1;HPM_P2
2021/06/28 00:00:11;;;;;;;4.85;3.92;;;20.00;99.90;;;;;;5068642;28;20288;-72
2021/06/28 00:02:38;;;;;;;4.25;3.95;;;19.90;99.90;;;;;;5068705;28;20296;-72
2021/06/28 00:05:05;;;;;;;4.50;4.20;;;19.60;99.90;;;;;;5067949;28;20303;-71
2021/06/28 00:07:34;;;;;;;4.30;3.90;;;19.50;99.90;;;;;;5067616;28;20211;-72
2021/06/28 00:10:01;;;;;;;4.30;3.90;;;19.40;99.90;;;;;;5068703;28;20409;-72
2021/06/28 00:12:28;;;;;;;4.47;4.07;;;19.30;99.90;;;;;;5068347;28;20297;-72
2021/06/28 00:14:55;;;;;;;4.70;4.30;;;19.40;99.90;;;;;;5067406;28;20245;-72
2021/06/28 00:17:21;;;;;;;4.60;4.30;;;19.30;99.90;;;;;;5068095;28;20228;-72
2021/06/28 00:19:48;;;;;;;5.25;4.85;;;19.30;99.90;;;;;;5083322;28;20296;-72
2021/06/28 00:22:16;;;;;;;5.18;4.88;;;19.20;99.90;;;;;;5086204;28;20299;-72
2021/06/28 00:24:44;;;;;;;5.93;5.35;;;19.20;99.90;;;;;;5068161;28;20224;-72
2021/06/28 00:27:11;;;;;;;5.85;5.45;;;19.20;99.90;;;;;;5068165;28;20201;-71
2021/06/28 00:29:38;;;;;;;5.40;5.00;;;19.20;99.90;;;;;;5068376;28;20292;-72
2021/06/28 00:32:05;;;;;;;5.35;5.05;;;19.20;99.90;;;;;;5067819;28;20209;-72
2021/06/28 00:34:32;;;;;;;6.57;6.07;;;19.20;99.90;;;;;;5075126;28;20224;-72
2021/06/28 00:36:59;;;;;;;6.10;5.70;;;19.20;99.90;;;;;;5074773;28;20209;-72
2021/06/28 00:39:26;;;;;;;6.78;5.95;;;19.20;99.90;;;;;;5067773;28;20241;-72
2021/06/28 00:41:54;;;;;;;6.00;5.50;;;19.10;99.90;;;;;;5068372;28;20304;-72
2021/06/28 00:44:21;;;;;;;6.18;5.78;;;19.10;99.90;;;;;;5067585;28;20296;-73
2021/06/28 00:46:48;;;;;;;6.55;6.05;;;19.10;99.90;;;;;;5066876;28;20201;-73
2021/06/28 00:49:14;;;;;;;6.95;6.45;;;19.10;99.90;;;;;;5082262;28;20232;-72
2021/06/28 00:51:41;;;;;;;6.80;6.30;;;19.10;99.90;;;;;;5067625;28;20244;-73
2021/06/28 00:54:09;;;;;;;7.57;6.85;;;19.10;99.90;;;;;;5067858;28;20779;-73
2021/06/28 00:56:36;;;;;;;7.38;6.80;;;19.00;99.90;;;;;;5066710;28;20209;-73
2021/06/28 00:59:05;;;;;;;6.15;5.65;;;18.90;99.90;;;;;;5067546;28;20205;-73
2021/06/28 01:01:32;;;;;;;7.20;6.60;;;18.90;99.90;;;;;;5067731;28;20285;-73
2021/06/28 01:03:59;;;;;;;6.80;6.20;;;18.90;99.90;;;;;;5062377;28;20604;-74
2021/06/28 01:06:26;;;;;;;6.65;6.00;;;18.90;99.90;;;;;;5047273;28;20654;-73
2021/06/28 01:08:53;;;;;;;6.35;5.95;;;18.80;99.90;;;;;;5063284;28;20207;-73
2021/06/28 01:11:20;;;;;;;6.88;6.38;;;18.80;99.90;;;;;;5067283;28;20211;-73
2021/06/28 01:13:47;;;;;;;7.40;6.55;;;18.80;99.90;;;;;;5067965;28;20312;-73
2021/06/28 01:16:18;;;;;;;6.85;6.25;;;18.80;99.90;;;;;;5066309;28;20331;-72
2021/06/28 01:18:45;;;;;;;7.00;6.50;;;18.90;99.90;;;;;;5067370;28;20304;-73
2021/06/28 01:21:13;;;;;;;6.20;5.80;;;18.90;99.90;;;;;;5067055;28;20284;-73
2021/06/28 01:23:41;;;;;;;6.43;5.82;;;19.00;99.90;;;;;;5067412;28;21024;-72
2021/06/28 01:26:10;;;;;;;6.40;5.90;;;19.00;99.90;;;;;;5065769;28;20205;-73
2021/06/28 01:28:38;;;;;;;8.30;6.03;;;19.00;99.90;;;;;;5067081;28;20658;-73
2021/06/28 01:31:07;;;;;;;5.82;5.32;;;19.00;99.90;;;;;;5066739;28;20887;-73
2021/06/28 01:33:35;;;;;;;5.53;5.15;;;19.10;99.90;;;;;;5067336;28;20303;-72
2021/06/28 01:36:01;;;;;;;6.60;5.95;;;19.10;99.90;;;;;;5065917;28;20225;-73
2021/06/28 01:38:28;;;;;;;6.50;6.00;;;19.20;99.90;;;;;;5067180;28;20207;-73
2021/06/28 01:40:57;;;;;;;5.93;5.40;;;19.20;99.90;;;;;;5066723;28;20308;-73
2021/06/28 01:43:24;;;;;;;6.18;5.78;;;19.10;99.90;;;;;;5077103;28;20276;-73
2021/06/28 01:45:51;;;;;;;6.53;5.95;;;19.00;99.90;;;;;;5075708;28;20201;-72
2021/06/28 01:48:18;;;;;;;6.25;5.65;;;18.90;99.90;;;;;;5075836;28;20772;-72
2021/06/28 01:50:46;;;;;;;5.72;5.20;;;18.90;99.90;;;;;;5066300;28;20211;-72
2021/06/28 01:53:14;;;;;;;5.53;5.22;;;18.90;99.90;;;;;;5066849;28;20295;-73
2021/06/28 01:55:41;;;;;;;5.75;5.35;;;18.80;99.90;;;;;;5066550;28;20231;-73
2021/06/28 01:58:12;;;;;;;6.75;6.25;;;18.70;99.90;;;;;;5072517;28;20200;-72
2021/06/28 02:00:42;;;;;;;6.63;6.13;;;18.60;99.90;;;;;;5066687;28;20211;-73
2021/06/28 02:03:11;;;;;;;7.05;6.45;;;18.50;99.90;;;;;;5066399;28;20204;-73
2021/06/28 02:05:40;;;;;;;6.32;5.80;;;18.50;99.90;;;;;;5066016;28;20232;-73
2021/06/28 02:08:08;;;;;;;6.30;5.80;;;18.50;99.90;;;;;;5066781;28;20665;-73
2021/06/28 02:10:37;;;;;;;6.75;6.25;;;18.60;99.90;;;;;;5071320;28;20407;-73
2021/06/28 02:13:04;;;;;;;6.20;5.70;;;18.60;99.90;;;;;;5086889;28;20330;-72
2021/06/28 02:15:33;;;;;;;6.65;6.07;;;18.60;99.90;;;;;;5085664;28;20224;-73
2021/06/28 02:18:01;;;;;;;7.30;6.70;;;18.60;99.90;;;;;;5085771;28;20205;-73
2021/06/28 02:20:30;;;;;;;6.60;6.20;;;18.50;99.90;;;;;;5086783;28;20224;-73
2021/06/28 02:23:12;;;;;;;6.68;6.13;;;18.50;99.90;;;;;;5070486;28;21454;-72
2021/06/28 02:25:39;;;;;;;6.90;6.40;;;18.50;99.90;;;;;;5065653;28;20205;-72
2021/06/28 02:28:06;;;;;;;6.45;5.93;;;18.40;99.90;;;;;;5065826;28;20307;-72
2021/06/28 02:30:34;;;;;;;6.53;6.03;;;18.50;99.90;;;;;;5066223;28;20299;-72
2021/06/28 02:33:01;;;;;;;7.15;6.55;;;18.40;99.90;;;;;;5065961;28;20197;-72
2021/06/28 02:35:28;;;;;;;7.18;6.47;;;18.40;99.90;;;;;;5065603;28;20312;-72
2021/06/28 02:37:55;;;;;;;6.40;5.90;;;18.40;99.90;;;;;;5066327;28;20575;-72
2021/06/28 02:40:22;;;;;;;6.85;6.25;;;18.50;99.90;;;;;;5083288;28;20853;-72
2021/06/28 02:42:48;;;;;;;6.60;6.10;;;18.50;99.90;;;;;;5086424;28;20581;-72
2021/06/28 02:45:16;;;;;;;6.55;6.15;;;18.40;99.90;;;;;;5085443;28;20634;-72
2021/06/28 02:47:44;;;;;;;6.03;5.63;;;18.50;99.90;;;;;;5086170;28;20287;-72
2021/06/28 02:50:13;;;;;;;6.10;5.70;;;18.70;99.90;;;;;;5086103;28;20299;-72
2021/06/28 02:52:41;;;;;;;6.05;5.65;;;18.90;99.90;;;;;;5083546;28;20230;-72
2021/06/28 02:55:09;;;;;;;6.78;6.18;;;18.80;99.90;;;;;;5065878;28;20311;-72
2021/06/28 02:57:37;;;;;;;6.55;6.15;;;18.70;99.90;;;;;;5046068;28;20205;-72
2021/06/28 03:00:06;;;;;;;7.20;6.70;;;18.60;99.90;;;;;;5046052;28;20298;-72
2021/06/28 03:02:33;;;;;;;6.88;6.30;;;18.50;99.90;;;;;;5048633;28;20202;-72
2021/06/28 03:05:01;;;;;;;6.78;6.18;;;18.50;99.90;;;;;;5065192;28;20734;-72
2021/06/28 03:07:28;;;;;;;6.40;6.00;;;18.50;99.90;;;;;;5072675;28;20201;-72
2021/06/28 03:09:55;;;;;;;6.88;6.38;;;18.50;99.90;;;;;;5071144;28;20292;-72
2021/06/28 03:12:22;;;;;;;6.45;5.95;;;18.50;99.90;;;;;;5083177;28;20335;-72
2021/06/28 03:14:49;;;;;;;5.85;5.45;;;18.50;99.90;;;;;;5065135;28;20641;-72
2021/06/28 03:17:15;;;;;;;6.80;6.30;;;18.50;99.90;;;;;;5065380;28;20661;-73
2021/06/28 03:19:42;;;;;;;6.47;6.07;;;18.40;99.90;;;;;;5065821;28;20201;-72
2021/06/28 03:22:10;;;;;;;5.90;5.40;;;18.40;99.90;;;;;;5065631;28;20225;-72
2021/06/28 03:24:37;;;;;;;6.68;6.18;;;18.40;99.90;;;;;;5065520;28;20385;-72
2021/06/28 03:27:05;;;;;;;6.43;5.90;;;18.40;99.90;;;;;;5067173;28;20662;-72
2021/06/28 03:29:33;;;;;;;6.60;6.20;;;18.40;99.90;;;;;;5069913;28;20721;-72
2021/06/28 03:32:00;;;;;;;6.78;6.28;;;18.40;99.90;;;;;;5070592;28;21069;-72
2021/06/28 03:34:27;;;;;;;6.35;5.75;;;18.40;99.90;;;;;;5069949;28;20630;-72
2021/06/28 03:36:53;;;;;;;6.47;5.97;;;18.40;99.90;;;;;;5067795;28;20267;-72
2021/06/28 03:39:22;;;;;;;5.80;5.40;;;18.30;99.90;;;;;;5068733;28;20304;-72
2021/06/28 03:41:48;;;;;;;6.03;5.57;;;18.30;99.90;;;;;;5069696;28;20201;-72
2021/06/28 03:44:15;;;;;;;7.22;6.72;;;18.30;99.90;;;;;;5069223;28;20323;-72
2021/06/28 03:46:42;;;;;;;5.80;5.40;;;18.30;99.90;;;;;;5067851;28;20223;-72
2021/06/28 03:49:09;;;;;;;5.88;5.45;;;18.40;99.90;;;;;;5069061;28;20293;-73
2021/06/28 03:51:36;;;;;;;7.18;6.57;;;18.30;99.90;;;;;;5068819;28;20255;-73
2021/06/28 03:54:03;;;;;;;5.50;5.20;;;18.30;99.90;;;;;;5068773;28;20197;-72
2021/06/28 03:56:53;;;;;;;6.45;6.05;;;18.50;99.90;;;;;;5068470;28;21209;-73
2021/06/28 03:59:22;;;;;;;6.18;5.57;;;18.80;99.90;;;;;;5071268;28;20292;-73
2021/06/28 04:01:49;;;;;;;6.75;6.20;;;18.80;99.90;;;;;;5069830;28;20308;-73
2021/06/28 04:04:17;;;;;;;7.97;7.30;;;18.90;99.90;;;;;;5075695;28;20215;-73
2021/06/28 04:06:43;;;;;;;7.43;6.80;;;18.80;99.90;;;;;;5069158;28;20229;-73
2021/06/28 04:09:10;;;;;;;7.05;6.45;;;18.70;99.90;;;;;;5069621;28;20205;-73
2021/06/28 04:11:38;;;;;;;7.20;6.63;;;18.70;99.90;;;;;;5068722;28;20300;-72
2021/06/28 04:14:05;;;;;;;8.00;7.40;;;18.70;99.90;;;;;;5069182;28;20725;-73
2021/06/28 04:16:32;;;;;;;8.10;7.15;;;18.70;99.90;;;;;;5067602;28;20871;-72
2021/06/28 04:18:59;;;;;;;8.07;7.47;;;18.60;99.90;;;;;;5076586;28;20296;-73
2021/06/28 04:21:26;;;;;;;8.27;7.47;;;18.60;99.90;;;;;;5075704;28;20224;-73
2021/06/28 04:23:53;;;;;;;8.23;7.47;;;18.60;99.90;;;;;;5088945;28;20283;-72
2021/06/28 04:26:19;;;;;;;7.15;6.65;;;18.50;99.90;;;;;;5090688;22;20839;-72
2021/06/28 04:28:48;;;;;;;7.07;6.57;;;18.60;99.90;;;;;;5072668;22;20319;-73
2021/06/28 04:31:14;;;;;;;7.18;6.60;;;18.70;99.90;;;;;;5068290;28;20280;-73
2021/06/28 04:33:41;;;;;;;6.40;5.90;;;18.70;99.90;;;;;;5068286;28;20291;-73
2021/06/28 04:36:08;;;;;;;6.82;6.20;;;18.90;99.90;;;;;;5067977;28;20204;-72
2021/06/28 04:38:35;;;;;;;6.25;5.72;;;19.00;99.90;;;;;;5067134;28;20203;-73
2021/06/28 04:41:02;;;;;;;6.10;5.70;;;19.20;99.90;;;;;;5068346;28;20638;-73
2021/06/28 04:43:28;;;;;;;6.20;5.80;;;19.40;99.90;;;;;;5068120;28;20201;-73
2021/06/28 04:45:57;;;;;;;5.83;5.33;;;19.60;99.90;;;;;;5074845;28;20686;-73
2021/06/28 04:48:24;;;;;;;5.47;5.07;;;20.20;99.90;;;;;;5087693;28;20653;-73
2021/06/28 04:50:50;;;;;;;5.67;5.20;;;21.00;99.90;;;;;;5071410;28;20633;-73
2021/06/28 04:53:17;;;;;;;5.03;4.73;;;21.40;99.90;;;;;;5067738;28;20654;-73
2021/06/28 04:55:44;;;;;;;5.90;5.50;;;21.60;99.90;;;;;;5064521;28;20771;-73
2021/06/28 04:58:11;;;;;;;5.63;5.23;;;21.40;99.90;;;;;;5077873;28;20717;-73
2021/06/28 05:00:38;;;;;;;5.23;4.83;;;21.40;99.90;;;;;;5088008;28;20618;-73
2021/06/28 05:03:07;;;;;;;5.30;5.00;;;21.20;99.90;;;;;;5069543;28;20713;-73
2021/06/28 05:05:36;;;;;;;5.80;5.40;;;20.80;99.90;;;;;;5066506;28;20685;-73
2021/06/28 05:08:03;;;;;;;5.73;5.23;;;20.70;99.90;;;;;;5082135;28;20630;-72
2021/06/28 05:10:30;;;;;;;6.43;6.03;;;20.50;99.90;;;;;;5076076;28;20669;-72
2021/06/28 05:12:57;;;;;;;6.77;6.27;;;20.50;99.90;;;;;;5067180;28;20723;-72
2021/06/28 05:15:24;;;;;;;6.07;5.67;;;20.30;99.90;;;;;;5066324;28;21394;-72
2021/06/28 05:17:51;;;;;;;5.77;5.37;;;20.20;99.90;;;;;;5067638;28;20973;-72
2021/06/28 05:20:19;;;;;;;6.33;5.93;;;20.30;99.90;;;;;;5067102;28;20718;-71
2021/06/28 05:22:46;;;;;;;6.60;6.20;;;20.20;99.90;;;;;;5067407;28;20637;-71
2021/06/28 05:25:14;;;;;;;6.10;5.60;;;20.90;99.90;;;;;;5064823;28;20718;-71
2021/06/28 05:27:41;;;;;;;5.30;4.90;;;22.80;99.90;;;;;;5071035;28;20640;-72
2021/06/28 05:30:11;;;;;;;5.53;5.13;;;24.20;99.90;;;;;;5068289;28;20725;-71
2021/06/28 05:32:38;;;;;;;5.30;4.90;;;24.50;99.90;;;;;;5067206;28;20698;-72
2021/06/28 05:35:07;;;;;;;5.33;5.03;;;23.70;99.90;;;;;;5065188;28;20619;-72
2021/06/28 05:37:36;;;;;;;5.00;4.67;;;23.50;99.90;;;;;;5066865;28;20711;-72
2021/06/28 05:40:03;;;;;;;5.67;5.07;;;23.50;99.90;;;;;;5079304;28;20639;-72
2021/06/28 05:42:30;;;;;;;5.57;5.07;;;23.10;99.90;;;;;;5086885;28;20618;-72
2021/06/28 05:44:57;;;;;;;5.10;4.70;;;23.00;99.90;;;;;;5086108;28;20622;-71
2021/06/28 05:47:24;;;;;;;4.97;4.67;;;23.30;99.90;;;;;;5065811;28;21271;-72
2021/06/28 05:49:51;;;;;;;5.10;4.80;;;23.80;99.90;;;;;;5066052;28;20615;-72
2021/06/28 05:52:20;;;;;;;6.13;4.87;;;24.50;99.90;;;;;;5066472;28;20726;-72
2021/06/28 05:54:49;;;;;;;4.90;4.50;;;25.40;99.90;;;;;;5065588;28;20626;-72
2021/06/28 05:57:18;;;;;;;5.00;4.60;;;26.80;98.40;;;;;;5066286;28;20644;-72
2021/06/28 05:59:45;;;;;;;5.00;4.70;;;28.60;95.70;;;;;;5066348;28;20660;-72
2021/06/28 06:02:12;;;;;;;5.57;5.20;;;29.30;93.70;;;;;;5065449;28;21205;-72
2021/06/28 06:04:39;;;;;;;4.37;4.17;;;28.80;93.10;;;;;;5065884;28;20732;-72
2021/06/28 06:07:06;;;;;;;4.33;4.13;;;27.10;95.20;;;;;;5068108;28;21255;-72
2021/06/28 06:09:33;;;;;;;5.17;4.87;;;26.30;96.60;;;;;;5066279;28;20615;-72
2021/06/28 06:12:02;;;;;;;5.27;4.90;;;26.60;95.90;;;;;;5066655;28;20627;-72
2021/06/28 06:14:29;;;;;;;5.03;4.73;;;27.30;95.00;;;;;;5065561;28;20678;-72
2021/06/28 06:16:56;;;;;;;4.43;4.23;;;28.30;93.40;;;;;;5065533;28;20718;-71
2021/06/28 06:19:22;;;;;;;4.67;4.37;;;30.60;89.50;;;;;;5066796;28;20634;-72
2021/06/28 06:21:49;;;;;;;4.17;3.97;;;31.30;83.70;;;;;;5066256;28;20717;-72
2021/06/28 06:24:16;;;;;;;3.83;3.53;;;29.70;87.50;;;;;;5066726;28;20629;-72
2021/06/28 06:26:43;;;;;;;4.17;3.87;;;29.20;90.00;;;;;;5065000;28;20682;-72
2021/06/28 06:29:12;;;;;;;3.80;3.43;;;28.90;91.10;;;;;;5065742;28;20631;-72
2021/06/28 06:31:38;;;;;;;4.70;4.50;;;29.50;90.20;;;;;;5066653;28;20651;-72
2021/06/28 06:34:05;;;;;;;4.30;4.00;;;30.10;88.00;;;;;;5069869;28;20995;-72
2021/06/28 06:36:32;;;;;;;4.17;3.87;;;30.70;86.70;;;;;;5080280;28;21032;-72
2021/06/28 06:38:59;;;;;;;4.00;3.80;;;31.00;83.00;;;;;;5065980;28;20611;-72
2021/06/28 06:41:26;;;;;;;4.70;4.40;;;31.00;85.20;;;;;;5065804;28;21462;-72
2021/06/28 06:43:53;;;;;;;4.07;3.87;;;31.80;80.00;;;;;;5066137;28;21231;-72
2021/06/28 06:46:21;;;;;;;3.90;3.60;;;32.20;79.10;;;;;;5064452;28;20615;-72
2021/06/28 06:48:48;;;;;;;3.80;3.60;;;32.50;78.80;;;;;;5066193;28;20710;-72
2021/06/28 06:51:17;;;;;;;6.30;3.90;;;32.00;80.20;;;;;;5065505;28;21074;-72
2021/06/28 06:53:44;;;;;;;3.73;3.53;;;32.60;78.70;;;;;;5065746;28;20626;-73
2021/06/28 06:56:11;;;;;;;4.10;3.80;;;32.70;75.40;;;;;;5073358;28;20709;-73
2021/06/28 06:58:38;;;;;;;3.80;3.60;;;32.90;76.60;;;;;;5081983;28;21066;-73
2021/06/28 07:01:09;;;;;;;3.50;3.40;;;32.90;76.40;;;;;;5072520;28;20721;-73
2021/06/28 07:03:37;;;;;;;3.63;3.43;;;32.70;76.40;;;;;;5076414;28;20619;-72
2021/06/28 07:06:04;;;;;;;3.13;3.03;;;32.70;76.10;;;;;;5069487;28;20658;-73
2021/06/28 07:08:33;;;;;;;3.30;3.10;;;32.80;74.70;;;;;;5069139;28;21062;-73
2021/06/28 07:11:00;;;;;;;3.43;3.23;;;33.40;74.60;;;;;;5069644;28;20619;-73
2021/06/28 07:13:27;;;;;;;4.00;3.80;;;33.30;73.10;;;;;;5068032;28;20629;-73
2021/06/28 07:15:58;;;;;;;3.47;3.27;;;33.30;74.90;;;;;;5068171;28;20714;-73
2021/06/28 07:18:26;;;;;;;3.73;3.53;;;34.10;72.00;;;;;;5068079;28;20622;-73
2021/06/28 07:20:56;;;;;;;3.50;3.33;;;33.50;70.90;;;;;;5078618;28;20719;-72
2021/06/28 07:23:23;;;;;;;4.07;3.87;;;32.90;74.00;;;;;;5088662;28;21026;-73
2021/06/28 07:25:50;;;;;;;3.60;3.40;;;33.00;71.30;;;;;;5076948;28;20623;-73
2021/06/28 07:28:17;;;;;;;3.50;3.30;;;33.90;70.50;;;;;;5068512;28;20626;-72
2021/06/28 07:30:44;;;;;;;3.23;3.07;;;34.90;67.10;;;;;;5068795;28;20623;-72
2021/06/28 07:33:10;;;;;;;4.13;3.93;;;35.60;64.00;;;;;;5068720;28;21312;-73
2021/06/28 07:35:37;;;;;;;4.00;3.70;;;35.10;65.90;;;;;;5067650;28;20680;-73
2021/06/28 07:38:06;;;;;;;4.17;3.97;;;34.10;68.50;;;;;;5071975;28;20681;-73
2021/06/28 07:40:34;;;;;;;5.10;4.13;;;33.60;68.10;;;;;;5085581;28;20669;-73
2021/06/28 07:43:01;;;;;;;4.50;4.10;;;33.10;72.60;;;;;;5089461;28;21277;-73
2021/06/28 07:45:28;;;;;;;3.80;3.60;;;32.90;70.10;;;;;;5075531;28;20684;-73
2021/06/28 07:47:57;;;;;;;3.87;3.60;;;33.30;72.30;;;;;;5068557;28;20684;-73
2021/06/28 07:50:24;;;;;;;4.10;3.70;;;32.60;73.20;;;;;;5067786;28;20642;-73
2021/06/28 07:52:51;;;;;;;3.73;3.43;;;33.50;71.80;;;;;;5088671;28;21092;-73
2021/06/28 07:55:20;;;;;;;3.77;3.57;;;34.60;67.90;;;;;;5087790;28;20725;-72
2021/06/28 07:57:47;;;;;;;3.90;3.70;;;35.30;64.40;;;;;;5070183;28;20689;-72
2021/06/28 08:00:16;;;;;;;4.20;3.90;;;34.70;64.70;;;;;;5069141;28;20635;-72
2021/06/28 08:02:43;;;;;;;4.60;4.30;;;35.10;62.80;;;;;;5067879;28;20639;-73
2021/06/28 08:05:11;;;;;;;3.77;3.57;;;34.10;65.50;;;;;;5067726;28;21207;-73
2021/06/28 08:07:38;;;;;;;3.70;3.50;;;33.40;68.60;;;;;;5068638;28;20981;-72
2021/06/28 08:10:08;;;;;;;4.40;4.10;;;33.70;65.60;;;;;;5062207;28;20679;-73
2021/06/28 08:12:37;;;;;;;3.53;3.43;;;34.10;65.20;;;;;;5063455;28;20647;-73
2021/06/28 08:15:06;;;;;;;4.20;4.00;;;34.20;68.80;;;;;;5066046;28;20768;-73
2021/06/28 08:17:33;;;;;;;4.00;3.80;;;34.00;67.70;;;;;;5063058;28;21127;-73
2021/06/28 08:20:00;;;;;;;4.10;3.80;;;33.80;68.10;;;;;;5068102;28;21085;-73
2021/06/28 08:22:27;;;;;;;3.97;3.77;;;34.40;71.00;;;;;;5066724;28;20627;-73
2021/06/28 08:24:54;;;;;;;4.40;4.10;;;35.20;64.00;;;;;;5066376;28;20663;-73
2021/06/28 08:27:21;;;;;;;4.23;4.03;;;34.30;66.30;;;;;;5066810;28;20639;-73
2021/06/28 08:29:49;;;;;;;4.03;3.73;;;34.20;68.10;;;;;;5067663;28;20635;-73
2021/06/28 08:32:18;;;;;;;3.97;3.77;;;34.30;66.50;;;;;;5067366;28;20738;-73
2021/06/28 08:34:45;;;;;;;4.20;4.00;;;34.50;67.70;;;;;;5067007;28;20627;-73
2021/06/28 08:37:12;;;;;;;3.80;3.60;;;33.80;67.60;;;;;;5065905;28;20670;-73
2021/06/28 08:39:39;;;;;;;4.00;3.70;;;34.10;69.20;;;;;;5067487;28;20723;-73
2021/06/28 08:42:08;;;;;;;3.63;3.53;;;34.70;64.40;;;;;;5067230;28;20748;-73
2021/06/28 08:44:35;;;;;;;3.70;3.50;;;35.20;62.20;;;;;;5066271;28;20702;-73
2021/06/28 08:47:04;;;;;;;4.57;4.30;;;34.90;67.70;;;;;;5065219;28;20634;-74
2021/06/28 08:49:32;;;;;;;4.23;3.93;;;34.00;68.50;;;;;;5066129;28;21002;-74
2021/06/28 08:51:59;;;;;;;4.27;4.00;;;33.70;68.10;;;;;;5064646;28;20666;-73
2021/06/28 08:54:26;;;;;;;4.23;3.83;;;33.60;68.70;;;;;;5066848;28;20631;-72
2021/06/28 08:56:53;;;;;;;4.10;3.80;;;33.50;69.70;;;;;;5059198;28;20683;-73
2021/06/28 08:59:20;;;;;;;4.10;3.90;;;32.20;66.60;;;;;;5062355;28;20739;-73
2021/06/28 09:01:47;;;;;;;4.30;4.10;;;32.70;65.10;;;;;;5067197;28;20734;-73
2021/06/28 09:04:16;;;;;;;3.50;3.40;;;33.30;63.80;;;;;;5066678;28;20718;-73
2021/06/28 09:06:44;;;;;;;4.93;4.50;;;33.90;61.70;;;;;;5065772;28;20693;-73
2021/06/28 09:09:13;;;;;;;4.00;3.70;;;34.40;61.40;;;;;;5062339;28;20634;-73
2021/06/28 09:11:42;;;;;;;4.43;4.23;;;34.10;60.30;;;;;;5063806;28;20641;-73
2021/06/28 09:14:11;;;;;;;4.43;4.20;;;32.90;64.70;;;;;;5066935;28;20647;-73
2021/06/28 09:16:40;;;;;;;4.33;4.13;;;32.30;66.70;;;;;;5065321;28;21247;-74
2021/06/28 09:19:09;;;;;;;3.90;3.70;;;32.40;70.40;;;;;;5065640;28;20635;-73
2021/06/28 09:21:40;;;;;;;4.03;3.83;;;32.80;67.50;;;;;;5065596;28;20635;-74
2021/06/28 09:24:23;;;;;;;4.23;3.93;;;33.60;69.10;;;;;;5066264;28;20688;-74
2021/06/28 09:26:50;;;;;;;3.47;3.13;;;34.10;66.70;;;;;;5063827;28;20666;-74
2021/06/28 09:29:17;;;;;;;3.47;3.27;;;34.00;65.60;;;;;;5065488;28;20682;-73
2021/06/28 09:31:48;;;;;;;3.40;3.20;;;34.30;64.90;;;;;;5065184;28;20620;-74
2021/06/28 09:34:18;;;;;;;3.70;3.50;;;34.50;67.40;;;;;;5069160;28;20754;-74
2021/06/28 09:36:55;;;;;;;3.80;3.60;;;33.90;67.40;;;;;;5064095;28;20631;-74
2021/06/28 09:39:25;;;;;;;3.83;3.63;;;33.90;66.60;;;;;;5066811;28;20676;-74
2021/06/28 09:41:58;;;;;;;3.67;3.20;;;33.70;63.60;;;;;;5066344;28;20646;-74
2021/06/28 09:44:26;;;;;;;4.50;4.20;;;33.20;63.20;;;;;;5064767;28;20651;-74
2021/06/28 09:47:07;;;;;;;3.47;3.27;;;33.10;65.80;;;;;;5063075;28;20644;-74
2021/06/28 09:49:35;;;;;;;3.40;3.30;;;32.90;66.90;;;;;;5060961;28;20637;-74
2021/06/28 09:52:03;;;;;;;3.27;3.17;;;33.00;66.80;;;;;;5065895;28;21079;-74
2021/06/28 09:54:33;;;;;;;3.37;3.17;;;33.10;64.60;;;;;;5063663;28;20638;-75
2021/06/28 09:57:00;;;;;;;3.20;3.10;;;33.10;64.00;;;;;;5061054;28;20682;-74
2021/06/28 09:59:31;;;;;;;3.63;3.50;;;33.10;63.20;;;;;;5065723;28;21215;-74
2021/06/28 10:02:15;;;;;;;3.73;3.43;;;33.00;64.10;;;;;;5064859;28;20644;-74
2021/06/28 10:04:46;;;;;;;3.30;3.20;;;32.60;61.90;;;;;;5062409;28;20627;-74
2021/06/28 10:07:34;;;;;;;3.40;3.30;;;32.80;65.40;;;;;;5064240;28;20627;-74
2021/06/28 10:10:22;;;;;;;3.47;3.20;;;33.00;65.80;;;;;;5062245;28;21392;-74
2021/06/28 10:13:01;;;;;;;3.40;3.30;;;32.80;63.60;;;;;;5065477;28;21219;-74
2021/06/28 10:15:30;;;;;;;3.00;2.90;;;32.40;63.40;;;;;;5062560;28;21070;-74
2021/06/28 10:17:58;;;;;;;3.20;3.10;;;32.30;65.60;;;;;;5063702;28;20782;-74
2021/06/28 10:20:28;;;;;;;3.13;2.93;;;32.30;63.90;;;;;;5065656;28;21112;-74
2021/06/28 10:22:58;;;;;;;3.63;3.43;;;32.40;66.80;;;;;;5062732;28;20628;-73
2021/06/28 10:25:27;;;;;;;4.03;3.73;;;32.50;62.30;;;;;;5064029;28;20661;-74
2021/06/28 10:27:54;;;;;;;3.30;3.20;;;32.50;66.00;;;;;;5062365;28;21077;-74
2021/06/28 10:30:25;;;;;;;3.33;3.23;;;32.40;66.00;;;;;;5065158;28;20726;-74
2021/06/28 10:32:58;;;;;;;3.90;3.60;;;32.60;70.00;;;;;;5064906;28;20634;-74
2021/06/28 10:35:30;;;;;;;4.77;4.57;;;33.60;61.60;;;;;;5062228;28;20719;-74
2021/06/28 10:38:04;;;;;;;4.80;3.73;;;33.50;59.30;;;;;;5068452;28;20789;-73
2021/06/28 10:40:46;;;;;;;4.10;3.80;;;33.30;59.60;;;;;;5066385;28;21752;-74
2021/06/28 10:43:37;;;;;;;4.10;3.90;;;32.50;59.50;;;;;;5063088;28;20645;-74
2021/06/28 10:46:06;;;;;;;4.20;4.00;;;32.00;68.70;;;;;;5063065;28;20622;-75
2021/06/28 10:48:45;;;;;;;4.10;3.90;;;31.80;70.80;;;;;;5069206;28;21284;-73
2021/06/28 10:51:15;;;;;;;3.73;3.63;;;31.90;63.70;;;;;;5065899;28;20638;-74
2021/06/28 10:54:15;;;;;;;4.30;4.10;;;32.40;61.90;;;;;;5069031;28;20655;-74
2021/06/28 10:56:57;;;;;;;4.50;4.30;;;32.10;65.40;;;;;;5066441;28;20715;-74
2021/06/28 10:59:30;;;;;;;4.30;4.00;;;32.10;65.10;;;;;;5065264;28;20653;-73
2021/06/28 11:02:05;;;;;;;4.70;4.40;;;31.80;67.30;;;;;;5068592;28;20627;-74
2021/06/28 11:04:33;;;;;;;4.50;4.30;;;31.80;70.50;;;;;;5068552;28;20631;-73
2021/06/28 11:07:09;;;;;;;4.13;3.83;;;31.90;65.30;;;;;;5060097;28;20726;-74
2021/06/28 11:09:40;;;;;;;4.70;4.40;;;31.90;66.40;;;;;;5067051;28;20720;-74
2021/06/28 11:12:20;;;;;;;5.10;4.80;;;31.80;68.70;;;;;;5069507;28;20705;-74
2021/06/28 11:14:52;;;;;;;4.37;4.17;;;31.50;70.60;;;;;;5068674;28;20653;-74
2021/06/28 11:17:22;;;;;;;4.90;4.60;;;31.00;69.80;;;;;;5068993;28;20665;-75
2021/06/28 11:20:02;;;;;;;5.27;4.97;;;30.90;74.80;;;;;;5069158;28;20703;-74
2021/06/28 11:22:38;;;;;;;5.17;4.87;;;31.20;67.80;;;;;;5069780;28;20731;-75
2021/06/28 11:25:24;;;;;;;4.87;4.60;;;31.40;72.30;;;;;;5063318;28;20674;-75
2021/06/28 11:28:16;;;;;;;4.47;4.17;;;31.40;72.00;;;;;;5064366;28;20660;-75
2021/06/28 11:30:49;;;;;;;5.00;4.80;;;31.50;70.80;;;;;;5065759;28;20712;-74
2021/06/28 11:33:16;;;;;;;5.43;5.13;;;31.20;73.50;;;;;;5068426;28;20642;-74
2021/06/28 11:35:46;;;;;;;4.97;4.67;;;31.30;69.70;;;;;;5067107;28;20636;-75
2021/06/28 11:38:24;;;;;;;5.37;5.10;;;31.40;74.00;;;;;;5068253;28;20679;-75
2021/06/28 11:40:58;;;;;;;5.70;5.40;;;31.40;73.60;;;;;;5064608;28;21009;-75
2021/06/28 11:43:43;;;;;;;5.10;4.80;;;31.50;72.90;;;;;;5070625;28;20640;-74
2021/06/28 11:46:11;;;;;;;5.37;5.07;;;31.60;73.50;;;;;;5069887;28;20623;-73
2021/06/28 11:48:40;;;;;;;5.03;4.73;;;31.90;72.50;;;;;;5066458;28;20736;-73
2021/06/28 11:51:15;;;;;;;5.53;5.23;;;31.70;71.70;;;;;;5069034;28;20716;-72
2021/06/28 11:53:43;;;;;;;6.13;5.63;;;31.60;70.00;;;;;;5069737;28;20663;-72
2021/06/28 11:56:20;;;;;;;5.63;5.33;;;31.30;68.70;;;;;;5072885;28;20634;-73
2021/06/28 11:59:03;;;;;;;5.70;5.40;;;31.30;71.50;;;;;;5062939;28;20677;-72
2021/06/28 12:01:33;;;;;;;6.30;5.90;;;31.00;70.30;;;;;;5067938;28;20635;-73
2021/06/28 12:04:03;;;;;;;5.67;5.37;;;31.20;76.10;;;;;;5067588;28;20684;-73
2021/06/28 12:06:32;;;;;;;6.17;5.77;;;31.20;72.20;;;;;;5073409;28;21275;-72
2021/06/28 12:09:12;;;;;;;5.73;5.33;;;31.40;74.50;;;;;;5067472;28;20627;-72
2021/06/28 12:11:54;;;;;;;5.20;4.80;;;31.60;75.90;;;;;;5065310;28;20664;-73
2021/06/28 12:14:38;;;;;;;5.70;5.40;;;31.70;74.20;;;;;;5068410;28;21003;-72
2021/06/28 12:17:11;;;;;;;5.10;4.80;;;31.30;70.10;;;;;;5064296;28;20744;-73
2021/06/28 12:19:39;;;;;;;5.87;5.57;;;31.00;75.20;;;;;;5067983;28;21033;-73
2021/06/28 12:22:11;;;;;;;6.13;5.73;;;31.10;74.30;;;;;;5066074;28;20636;-73
2021/06/28 12:24:38;;;;;;;5.33;5.03;;;31.60;72.30;;;;;;5066100;28;20633;-72
2021/06/28 12:27:09;;;;;;;5.63;5.33;;;31.80;74.80;;;;;;5066607;28;20643;-72
2021/06/28 12:29:41;;;;;;;6.00;5.60;;;32.10;74.20;;;;;;5066822;28;20638;-72
2021/06/28 12:32:13;;;;;;;5.87;5.57;;;32.10;71.40;;;;;;5067216;28;20670;-73
2021/06/28 12:34:45;;;;;;;5.70;5.40;;;32.20;74.40;;;;;;5066734;28;20640;-72
2021/06/28 12:37:12;;;;;;;6.03;5.60;;;32.10;72.00;;;;;;5067629;28;20724;-72
2021/06/28 12:39:39;;;;;;;6.33;5.77;;;31.80;70.90;;;;;;5066867;28;21323;-72
2021/06/28 12:42:16;;;;;;;5.90;5.40;;;31.40;71.40;;;;;;5066885;28;21500;-72
2021/06/28 12:44:44;;;;;;;6.40;5.90;;;30.80;72.90;;;;;;5059588;28;20633;-73
2021/06/28 12:47:14;;;;;;;6.17;5.77;;;30.60;73.40;;;;;;5067292;28;20621;-75
2021/06/28 12:49:41;;;;;;;5.70;5.30;;;30.40;73.60;;;;;;5062295;28;20728;-75
2021/06/28 12:52:31;;;;;;;5.87;5.57;;;30.40;73.40;;;;;;5067055;28;20632;-75
2021/06/28 12:55:02;;;;;;;5.80;5.50;;;30.60;74.30;;;;;;5063244;28;20671;-75
2021/06/28 12:57:31;;;;;;;5.57;5.27;;;31.00;76.90;;;;;;5066758;28;20636;-74